Time;durP1;ratioP1;P1;durP2;ratioP2;P2;SDS_P1;SDS_P2;PMS_P1;PMS_P2;Temp;Humidity;BMP_temperature;BMP_pressure;BME280_temperature;BME280_humidity;BME280_pressure;Samples;Min_cycle;Max_cycle;Signal;HPM_P1;HPM_P2
2021/09/02 00:01:16;;;;;;;7.90;4.60;;;;;;;10.59;78.65;98650.88;4975597;28;20041;-75
2021/09/02 00:03:41;;;;;;;9.20;4.78;;;;;;;10.64;78.83;98661.97;4972735;28;20193;-78
2021/09/02 00:06:07;;;;;;;9.68;4.82;;;;;;;10.51;78.83;98645.84;4960932;28;20068;-76
2021/09/02 00:08:33;;;;;;;8.63;4.88;;;;;;;10.58;78.79;98656.09;4968505;28;20091;-76
2021/09/02 00:10:58;;;;;;;12.38;4.60;;;;;;;10.66;78.78;98659.34;4966569;28;20450;-75
2021/09/02 00:13:24;;;;;;;7.88;4.55;;;;;;;10.47;79.21;98613.03;4968916;28;20049;-76
2021/09/02 00:15:50;;;;;;;11.60;4.80;;;;;;;10.84;79.02;98655.38;4967728;28;20046;-76
2021/09/02 00:18:16;;;;;;;11.43;4.47;;;;;;;10.90;79.33;98643.94;4969350;28;20069;-75
2021/09/02 00:20:42;;;;;;;7.53;4.15;;;;;;;11.11;79.26;98656.34;4987768;28;20179;-76
2021/09/02 00:23:07;;;;;;;7.28;4.43;;;;;;;11.24;79.36;98650.75;4971519;28;20096;-76
2021/09/02 00:25:33;;;;;;;9.52;4.22;;;;;;;11.21;78.88;98635.22;4968553;28;20049;-76
2021/09/02 00:28:01;;;;;;;7.75;4.35;;;;;;;11.27;78.61;98635.88;4982180;28;20383;-76
2021/09/02 00:30:27;;;;;;;9.25;5.38;;;;;;;11.45;78.96;98657.91;4984961;28;21316;-76
2021/09/02 00:32:58;;;;;;;7.07;4.60;;;;;;;11.46;78.55;98640.56;4948267;28;20133;-75
2021/09/02 00:35:24;;;;;;;7.25;4.45;;;;;;;11.55;78.89;98642.03;4967865;28;20070;-77
2021/09/02 00:37:49;;;;;;;6.63;4.05;;;;;;;11.50;78.40;98644.75;4967476;28;20049;-75
2021/09/02 00:40:15;;;;;;;6.75;4.35;;;;;;;11.45;78.15;98650.09;4954490;28;20050;-76
2021/09/02 00:42:41;;;;;;;8.13;4.63;;;;;;;11.36;78.23;98650.41;4971624;28;20104;-76
2021/09/02 00:45:07;;;;;;;7.13;4.60;;;;;;;11.29;78.64;98643.66;4987020;28;20034;-75
2021/09/02 00:47:32;;;;;;;8.50;4.60;;;;;;;11.33;78.63;98640.06;4969036;28;20041;-76
2021/09/02 00:49:58;;;;;;;8.13;4.38;;;;;;;11.27;78.25;98629.84;4985541;28;20046;-77
2021/09/02 00:52:31;;;;;;;5.90;3.97;;;;;;;11.45;78.35;98657.09;4986688;28;20462;-75
2021/09/02 00:55:01;;;;;;;7.18;4.22;;;;;;;11.35;78.21;98632.19;4983770;28;20409;-75
2021/09/02 00:57:28;;;;;;;8.50;4.63;;;;;;;11.52;78.38;98649.94;4983846;28;20042;-75
2021/09/02 00:59:57;;;;;;;7.20;4.55;;;;;;;11.50;78.37;98643.91;4986263;28;20942;-76
2021/09/02 01:02:24;;;;;;;6.93;4.18;;;;;;;11.56;77.76;98635.91;4986739;28;20034;-75
2021/09/02 01:04:54;;;;;;;9.05;5.13;;;;;;;11.51;77.88;98617.78;4951866;28;20042;-75
2021/09/02 01:07:25;;;;;;;10.40;4.85;;;;;;;11.71;77.73;98644.97;4968719;28;20509;-75
2021/09/02 01:09:56;;;;;;;6.22;4.40;;;;;;;11.74;77.92;98645.75;4968414;28;20038;-77
2021/09/02 01:12:35;;;;;;;6.72;4.45;;;;;;;11.85;77.66;98652.34;4974257;28;20045;-75
2021/09/02 01:15:05;;;;;;;5.68;4.03;;;;;;;11.86;77.73;98660.13;4984866;28;20529;-75
2021/09/02 01:17:32;;;;;;;8.48;4.57;;;;;;;11.82;77.64;98657.66;4968526;28;20034;-74
2021/09/02 01:19:58;;;;;;;7.43;4.40;;;;;;;11.74;77.09;98655.28;4983169;28;20085;-75
2021/09/02 01:22:25;;;;;;;10.48;4.68;;;;;;;11.64;77.10;98656.50;4950937;28;20045;-77
2021/09/02 01:24:51;;;;;;;10.82;4.55;;;;;;;11.42;77.32;98637.16;4969918;28;20924;-76
2021/09/02 01:27:20;;;;;;;7.75;4.50;;;;;;;11.43;77.24;98645.84;4985152;28;20042;-75
2021/09/02 01:29:56;;;;;;;6.45;4.45;;;;;;;11.47;77.12;98667.44;4985502;28;20077;-77
2021/09/02 01:32:31;;;;;;;8.25;4.32;;;;;;;11.39;76.93;98658.09;4968219;28;20537;-77
2021/09/02 01:34:58;;;;;;;9.68;4.78;;;;;;;11.33;77.45;98665.25;4949876;28;20518;-76
2021/09/02 01:37:25;;;;;;;8.13;5.07;;;;;;;11.29;77.40;98664.50;4950660;28;20069;-77
2021/09/02 01:39:52;;;;;;;7.90;4.50;;;;;;;11.28;77.24;98678.41;4983616;28;20046;-76
2021/09/02 01:42:19;;;;;;;7.07;4.80;;;;;;;11.25;77.32;98676.78;4966765;28;20027;-76
2021/09/02 01:44:45;;;;;;;7.60;4.90;;;;;;;11.07;77.18;98659.06;4966261;28;20041;-76
2021/09/02 01:47:22;;;;;;;8.30;5.22;;;;;;;11.14;77.33;98684.88;4968875;28;20418;-75
2021/09/02 01:49:48;;;;;;;8.18;5.20;;;;;;;11.07;77.07;98688.56;4965832;28;20038;-76
2021/09/02 01:52:14;;;;;;;9.93;5.40;;;;;;;10.85;77.51;98652.72;4948930;28;20427;-76
2021/09/02 01:54:40;;;;;;;6.35;4.60;;;;;;;11.07;77.15;98690.28;4962790;28;20086;-76
2021/09/02 01:57:06;;;;;;;6.88;4.75;;;;;;;11.13;77.20;98693.59;4965114;28;20043;-75
2021/09/02 01:59:32;;;;;;;6.70;4.85;;;;;;;11.09;77.44;98684.16;4966516;28;20119;-75
2021/09/02 02:01:58;;;;;;;9.77;4.78;;;;;;;11.19;77.21;98678.69;4966914;28;20059;-74
2021/09/02 02:04:23;;;;;;;8.10;5.43;;;;;;;11.21;77.31;98693.38;4934440;28;20533;-75
2021/09/02 02:06:49;;;;;;;8.57;4.78;;;;;;;11.19;77.07;98689.09;4949221;28;20055;-76
2021/09/02 02:09:15;;;;;;;8.85;4.07;;;;;;;11.19;77.48;98691.69;4978356;28;20081;-76
2021/09/02 02:11:40;;;;;;;8.02;4.20;;;;;;;11.20;77.25;98690.78;4968214;28;20076;-75
2021/09/02 02:14:06;;;;;;;7.53;4.32;;;;;;;11.16;76.81;98692.66;4965268;28;20042;-77
2021/09/02 02:16:32;;;;;;;9.73;4.53;;;;;;;11.14;77.00;98681.41;4934770;28;20070;-76
2021/09/02 02:18:57;;;;;;;7.68;4.22;;;;;;;11.19;77.23;98681.28;4964953;28;20047;-77
2021/09/02 02:21:23;;;;;;;6.70;4.43;;;;;;;11.35;77.17;98692.97;4965693;28;20043;-75
2021/09/02 02:23:49;;;;;;;7.30;4.28;;;;;;;11.36;76.94;98678.19;4964809;28;20038;-75
2021/09/02 02:26:14;;;;;;;9.30;4.70;;;;;;;11.52;76.78;98696.81;4963803;28;20142;-76
2021/09/02 02:28:40;;;;;;;8.15;5.13;;;;;;;11.61;76.82;98699.13;4965910;28;20042;-76
2021/09/02 02:31:06;;;;;;;6.55;4.53;;;;;;;11.55;76.48;98674.13;4949781;28;20456;-75
2021/09/02 02:33:31;;;;;;;12.93;5.70;;;;;;;11.75;76.43;98699.56;4967425;28;20062;-76
2021/09/02 02:35:57;;;;;;;11.93;5.15;;;;;;;11.82;76.39;98696.75;4968970;28;20043;-77
2021/09/02 02:38:23;;;;;;;8.38;5.03;;;;;;;11.90;76.08;98684.34;4968611;28;20046;-75
2021/09/02 02:40:48;;;;;;;10.50;5.22;;;;;;;11.96;76.32;98685.88;4967310;28;20034;-75
2021/09/02 02:43:14;;;;;;;9.20;5.32;;;;;;;11.95;75.92;98669.41;4952017;28;20049;-75
2021/09/02 02:45:40;;;;;;;8.70;4.88;;;;;;;11.94;75.81;98659.00;4967007;28;20042;-75
2021/09/02 02:48:06;;;;;;;8.10;4.40;;;;;;;11.96;76.01;98647.66;4968767;28;20372;-76
2021/09/02 02:50:33;;;;;;;7.80;3.97;;;;;;;12.08;75.61;98672.50;4968457;28;20391;-77
2021/09/02 02:52:59;;;;;;;7.45;4.72;;;;;;;12.13;75.45;98673.22;4951402;28;20080;-77
2021/09/02 02:55:25;;;;;;;13.60;4.45;;;;;;;12.20;75.86;98676.47;4958977;28;20070;-75
2021/09/02 02:57:51;;;;;;;10.10;4.65;;;;;;;12.11;75.46;98658.50;4969641;28;20053;-76
2021/09/02 03:00:17;;;;;;;7.53;4.93;;;;;;;12.19;75.32;98677.34;4968929;28;20498;-76
2021/09/02 03:02:43;;;;;;;8.20;4.20;;;;;;;12.31;75.30;98687.38;4985791;28;20053;-78
2021/09/02 03:05:09;;;;;;;9.05;4.38;;;;;;;12.38;75.07;98690.63;4987483;28;20038;-76
2021/09/02 03:07:36;;;;;;;7.07;4.50;;;;;;;12.45;75.37;98699.94;4986865;28;20137;-78
2021/09/02 03:10:07;;;;;;;8.35;4.28;;;;;;;12.47;75.02;98681.63;4987661;28;20528;-76
2021/09/02 03:12:34;;;;;;;;;;;;;;;12.57;74.80;98701.28;4971694;28;20121;-75
2021/09/02 03:15:00;;;;;;;8.82;4.35;;;;;;;12.61;74.56;98692.44;4985952;28;19960;-76
2021/09/02 03:17:26;;;;;;;8.40;4.50;;;;;;;12.65;74.86;98695.78;4968823;28;20045;-77
2021/09/02 03:19:52;;;;;;;8.90;4.60;;;;;;;12.76;74.43;98709.34;4951791;28;20054;-77
2021/09/02 03:22:18;;;;;;;8.85;4.40;;;;;;;12.79;74.27;98700.53;4968755;28;20134;-77
2021/09/02 03:24:44;;;;;;;10.23;4.90;;;;;;;12.80;74.03;98700.47;4986385;28;20042;-77
2021/09/02 03:27:09;;;;;;;9.02;4.38;;;;;;;12.81;74.09;98698.72;4985825;28;20050;-76
2021/09/02 03:29:35;;;;;;;7.35;4.40;;;;;;;12.78;73.86;98701.44;4968307;28;20076;-78
2021/09/02 03:32:01;;;;;;;9.27;4.35;;;;;;;12.83;73.70;98698.66;4983676;28;20050;-76
2021/09/02 03:34:26;;;;;;;8.77;5.10;;;;;;;12.84;73.65;98705.56;4986576;28;20089;-77
2021/09/02 03:36:52;;;;;;;8.27;4.78;;;;;;;12.89;73.65;98709.75;4985549;28;20637;-76
2021/09/02 03:39:18;;;;;;;7.47;4.32;;;;;;;13.03;73.39;98721.44;4974410;28;20096;-78
2021/09/02 03:41:44;;;;;;;8.57;4.97;;;;;;;12.82;73.47;98687.38;4986398;28;20091;-75
2021/09/02 03:44:11;;;;;;;8.98;4.75;;;;;;;12.89;73.32;98688.00;4968962;28;20054;-79
2021/09/02 03:46:37;;;;;;;10.43;5.28;;;;;;;13.01;72.82;98703.25;4984675;28;20387;-76
2021/09/02 03:49:03;;;;;;;7.35;4.68;;;;;;;12.97;73.01;98696.41;4953259;28;20048;-78
2021/09/02 03:51:29;;;;;;;9.68;5.07;;;;;;;13.17;72.84;98724.41;4983548;28;20038;-77
2021/09/02 03:53:55;;;;;;;8.13;4.88;;;;;;;13.14;72.44;98711.44;4969446;28;21103;-77
2021/09/02 03:56:22;;;;;;;8.88;4.88;;;;;;;13.14;72.31;98714.06;4968792;28;20671;-78
2021/09/02 03:58:47;;;;;;;10.40;4.95;;;;;;;13.27;72.35;98724.91;4984202;28;20125;-76
2021/09/02 04:01:13;;;;;;;8.75;4.30;;;;;;;13.31;72.20;98717.84;4982610;28;20642;-77
2021/09/02 04:03:39;;;;;;;9.65;4.47;;;;;;;13.43;72.07;98727.00;4965322;28;20044;-76
2021/09/02 04:06:05;;;;;;;9.30;4.45;;;;;;;13.39;71.93;98707.94;4953267;28;20050;-77
2021/09/02 04:08:30;;;;;;;7.78;4.38;;;;;;;13.59;71.84;98722.03;4986730;28;20034;-77
2021/09/02 04:10:57;;;;;;;8.73;4.72;;;;;;;13.52;71.54;98697.88;4968847;28;20051;-76
2021/09/02 04:13:23;;;;;;;10.98;4.50;;;;;;;13.72;71.27;98715.44;5010566;28;20034;-76
2021/09/02 04:15:49;;;;;;;8.38;4.88;;;;;;;13.72;71.29;98699.75;4998448;28;20063;-75
2021/09/02 04:18:15;;;;;;;10.50;4.72;;;;;;;13.84;70.82;98709.69;5005308;28;20151;-76
2021/09/02 04:20:41;;;;;;;7.43;4.38;;;;;;;13.85;70.72;98695.72;4989752;28;20077;-76
2021/09/02 04:23:07;;;;;;;11.50;4.65;;;;;;;14.07;70.51;98704.47;4974100;28;20034;-76
2021/09/02 04:25:33;;;;;;;16.48;4.63;;;;;;;14.00;70.24;98675.94;4990599;28;20146;-76
2021/09/02 04:27:58;;;;;;;6.85;4.30;;;;;;;14.22;70.14;98698.59;4974189;28;20514;-75
2021/09/02 04:30:26;;;;;;;8.38;4.07;;;;;;;14.37;69.80;98712.81;4990133;28;20053;-76
2021/09/02 04:32:52;;;;;;;6.97;4.43;;;;;;;14.44;69.44;98714.28;4972262;28;20046;-75
2021/09/02 04:35:17;;;;;;;8.70;4.45;;;;;;;14.31;69.37;98690.38;4988329;28;20101;-76
2021/09/02 04:37:46;;;;;;;7.20;4.18;;;;;;;14.49;68.95;98695.75;4973153;28;20041;-77
2021/09/02 04:40:13;;;;;;;6.53;3.72;;;;;;;14.70;68.86;98714.09;4972064;28;20042;-77
2021/09/02 04:42:40;;;;;;;7.28;4.03;;;;;;;14.70;68.34;98709.69;4973039;28;20061;-76
2021/09/02 04:45:07;;;;;;;7.38;3.80;;;;;;;14.88;68.02;98723.78;4991242;28;20046;-77
2021/09/02 04:47:33;;;;;;;9.25;4.20;;;;;;;14.91;67.64;98718.41;4974354;28;20053;-78
2021/09/02 04:49:59;;;;;;;8.65;4.25;;;;;;;14.97;67.58;98732.16;4990084;28;20034;-77
2021/09/02 04:52:26;;;;;;;6.85;4.25;;;;;;;14.90;67.04;98713.22;4973616;28;20057;-76
2021/09/02 04:54:52;;;;;;;9.88;4.88;;;;;;;14.94;66.74;98712.16;4988913;28;20096;-77
2021/09/02 04:57:19;;;;;;;11.70;5.10;;;;;;;15.08;66.47;98719.41;4989147;28;20045;-77
2021/09/02 04:59:48;;;;;;;9.85;4.97;;;;;;;14.98;66.50;98705.03;4972988;28;20046;-77
2021/09/02 05:02:14;;;;;;;8.68;5.10;;;;;;;15.18;65.96;98731.19;4990907;28;20428;-76
2021/09/02 05:04:40;;;;;;;10.35;5.57;;;;;;;15.23;66.00;98722.28;4972139;28;20037;-76
2021/09/02 05:07:06;;;;;;;7.93;4.65;;;;;;;15.30;65.25;98724.56;4991060;28;20038;-76
2021/09/02 05:09:32;;;;;;;7.20;4.20;;;;;;;15.30;65.48;98711.44;4974247;28;20049;-77
2021/09/02 05:11:57;;;;;;;12.43;4.38;;;;;;;15.42;65.23;98728.38;4989794;28;20076;-78
2021/09/02 05:14:23;;;;;;;8.27;4.18;;;;;;;15.32;64.78;98712.25;4991959;28;20089;-77
2021/09/02 05:16:49;;;;;;;7.35;4.25;;;;;;;15.45;64.85;98732.63;4990794;28;20386;-76
2021/09/02 05:19:15;;;;;;;5.07;3.50;;;;;;;15.49;64.44;98728.94;4974018;28;20073;-76
2021/09/02 05:21:41;;;;;;;4.15;3.38;;;;;;;15.56;64.41;98725.09;4956663;28;20096;-79
2021/09/02 05:24:07;;;;;;;8.75;3.85;;;;;;;15.56;63.84;98709.38;4971177;28;20046;-78
2021/09/02 05:26:33;;;;;;;6.05;3.53;;;;;;;15.56;63.63;98695.44;4990490;28;20038;-77
2021/09/02 05:28:59;;;;;;;5.60;4.05;;;;;;;15.65;63.05;98726.47;4971681;28;20129;-78
2021/09/02 05:31:26;;;;;;;5.40;3.50;;;;;;;15.73;63.65;98726.94;4973871;28;20065;-74
2021/09/02 05:33:53;;;;;;;8.10;3.72;;;;;;;15.71;63.28;98720.91;4993268;28;20090;-77
2021/09/02 05:36:19;;;;;;;6.82;3.83;;;;;;;15.65;62.97;98719.44;4957477;28;20113;-78
2021/09/02 05:38:45;;;;;;;6.90;3.90;;;;;;;15.78;63.07;98724.09;4989418;28;20066;-77
2021/09/02 05:41:11;;;;;;;7.35;3.70;;;;;;;15.78;62.83;98721.47;4991489;28;20137;-77
2021/09/02 05:43:36;;;;;;;5.60;3.80;;;;;;;15.81;62.74;98719.56;4971431;28;20049;-77
2021/09/02 05:46:02;;;;;;;7.18;3.72;;;;;;;15.85;62.26;98709.78;4971825;28;20065;-76
2021/09/02 05:48:28;;;;;;;5.25;3.72;;;;;;;15.93;62.35;98726.03;4989889;28;20415;-77
2021/09/02 05:50:54;;;;;;;7.80;3.72;;;;;;;16.03;62.34;98731.69;4991603;28;20084;-78
2021/09/02 05:53:21;;;;;;;6.90;4.18;;;;;;;16.12;62.31;98733.00;4964066;28;20513;-76
2021/09/02 05:55:48;;;;;;;6.55;3.58;;;;;;;16.11;62.17;98716.41;4972068;28;20066;-76
2021/09/02 05:58:14;;;;;;;5.72;3.33;;;;;;;16.22;62.02;98715.88;4988999;28;20094;-77
2021/09/02 06:00:40;;;;;;;4.72;3.08;;;;;;;16.45;61.90;98728.78;4988142;28;20058;-79
2021/09/02 06:03:06;;;;;;;3.17;2.38;;;;;;;16.54;61.33;98729.19;4989278;28;20046;-78
2021/09/02 06:05:32;;;;;;;4.10;2.05;;;;;;;16.66;60.89;98730.34;4976252;28;20129;-76
2021/09/02 06:07:58;;;;;;;5.68;2.35;;;;;;;16.77;60.41;98726.31;4988264;28;20136;-78
2021/09/02 06:10:24;;;;;;;3.80;2.40;;;;;;;16.89;59.95;98740.56;4977732;28;20073;-77
2021/09/02 06:12:50;;;;;;;3.40;2.40;;;;;;;16.96;59.48;98748.13;4992608;28;20049;-77
2021/09/02 06:15:17;;;;;;;5.95;2.65;;;;;;;17.01;59.46;98738.19;4979912;28;21396;-77
2021/09/02 06:17:43;;;;;;;3.97;2.40;;;;;;;17.30;58.91;98748.94;5010705;28;20057;-76
2021/09/02 06:20:15;;;;;;;5.75;2.90;;;;;;;17.49;58.48;98758.47;4986631;28;20070;-77
2021/09/02 06:22:42;;;;;;;5.50;2.75;;;;;;;17.57;58.03;98752.78;4975405;28;20039;-76
2021/09/02 06:25:17;;;;;;;5.80;2.83;;;;;;;17.64;57.33;98756.81;4980151;28;20057;-76
2021/09/02 06:27:43;;;;;;;6.88;2.83;;;;;;;17.67;56.75;98761.91;4982797;28;20040;-75
2021/09/02 06:30:12;;;;;;;4.32;2.70;;;;;;;17.48;56.77;98698.94;4994107;28;20037;-78
2021/09/02 06:32:41;;;;;;;;;;;;;;;18.00;56.24;98753.09;4960299;28;20073;-77
2021/09/02 06:35:12;;;;;;;6.50;3.70;;;;;;;17.21;55.85;98628.56;4977125;28;19918;-77
2021/09/02 06:38:11;;;;;;;8.52;3.35;;;;;;;17.66;56.10;98691.81;4966218;28;20046;-77
2021/09/02 06:41:06;;;;;;;8.70;4.00;;;;;;;17.71;55.09;98689.78;4993756;28;20060;-77
2021/09/02 06:43:35;;;;;;;6.47;3.75;;;;;;;17.47;54.96;98670.94;5001259;28;20046;-78
2021/09/02 06:46:33;;;;;;;;;;;;;;;17.98;55.08;98749.72;4993115;28;20050;-77
2021/09/02 06:49:05;;;;;;;9.13;3.83;;;;;;;18.02;55.34;98755.66;4995545;28;19980;-77
2021/09/02 06:52:00;;;;;;;6.63;4.03;;;;;;;17.74;55.10;98707.16;4991280;28;20038;-79
2021/09/02 06:54:40;;;;;;;;;;;;;;;;;;;;;
2021/09/02 06:57:09;;;;;;;6.93;3.57;;;;;;;17.59;54.69;98674.66;4976267;28;20042;-77
2021/09/02 06:59:51;;;;;;;6.13;2.58;;;;;;;18.11;54.80;98781.44;4973766;28;20813;-77
2021/09/02 07:02:37;;;;;;;4.82;3.00;;;;;;;17.95;54.25;98757.75;4984557;28;20034;-76
2021/09/02 07:05:04;;;;;;;4.97;2.90;;;;;;;18.08;54.04;98775.50;4973863;28;20916;-76
2021/09/02 07:07:46;;;;;;;5.93;2.78;;;;;;;18.18;53.71;98776.69;4975306;28;20137;-76
2021/09/02 07:10:33;;;;;;;5.97;2.60;;;;;;;18.32;53.28;98781.16;4991259;28;20133;-77
2021/09/02 07:13:47;;;;;;;5.95;2.55;;;;;;;18.33;51.69;98783.72;4941548;28;20042;-77
2021/09/02 07:16:34;;;;;;;5.50;3.08;;;;;;;17.76;52.21;98697.41;4974836;28;20062;-77
2021/09/02 07:19:09;;;;;;;5.30;2.85;;;;;;;18.35;51.87;98797.63;4975228;28;20092;-77
2021/09/02 07:21:43;;;;;;;7.13;3.15;;;;;;;18.30;51.90;98775.97;4976452;28;20128;-76
2021/09/02 07:24:16;;;;;;;7.13;3.38;;;;;;;17.86;51.77;98713.50;4971837;28;20046;-76
2021/09/02 07:26:42;;;;;;;5.35;3.00;;;;;;;18.24;51.96;98770.22;4975704;28;20078;-77
2021/09/02 07:29:21;;;;;;;;;;;;;;;;;;;;;
2021/09/02 07:31:51;;;;;;;6.35;3.35;;;;;;;18.24;51.56;98759.69;4989292;28;20460;-77
2021/09/02 07:34:19;;;;;;;9.63;3.35;;;;;;;18.40;51.29;98768.41;4974552;28;20270;-77
2021/09/02 07:36:47;;;;;;;7.95;3.40;;;;;;;18.33;51.45;98777.56;4988677;28;20048;-78
2021/09/02 07:39:37;;;;;;;6.65;3.80;;;;;;;18.43;51.36;98773.50;4981074;28;20562;-78
2021/09/02 07:42:09;;;;;;;5.05;3.33;;;;;;;18.57;51.10;98754.25;4951561;28;20062;-76
2021/09/02 07:44:35;;;;;;;3.60;2.90;;;;;;;18.94;51.04;98790.75;4958336;28;20184;-78
2021/09/02 07:47:11;;;;;;;5.93;2.65;;;;;;;18.92;50.51;98775.03;4973874;28;20358;-76
2021/09/02 07:49:41;;;;;;;5.65;3.10;;;;;;;18.50;50.08;98722.16;4989579;28;20045;-76
2021/09/02 07:52:13;;;;;;;6.05;2.65;;;;;;;18.92;49.46;98787.38;4985854;28;20058;-79
2021/09/02 07:54:54;;;;;;;6.38;2.83;;;;;;;18.98;49.83;98788.81;4955175;28;20467;-75
2021/09/02 07:57:33;;;;;;;5.37;2.67;;;;;;;18.95;49.48;98772.25;4956401;28;20049;-78
2021/09/02 08:00:11;;;;;;;5.07;2.80;;;;;;;19.55;49.01;98802.03;4952518;28;20041;-78
2021/09/02 08:02:50;;;;;;;3.88;2.58;;;;;;;19.05;48.53;98656.56;4969295;28;20463;-75
2021/09/02 08:05:16;;;;;;;5.50;2.53;;;;;;;20.09;48.02;98799.59;4948842;28;20106;-78
2021/09/02 08:07:52;;;;;;;5.93;2.97;;;;;;;20.04;48.01;98752.38;4976067;28;20729;-77
2021/09/02 08:10:26;;;;;;;3.83;2.47;;;;;;;20.23;47.67;98751.19;4968530;28;20137;-76
2021/09/02 08:13:33;;;;;;;2.92;1.80;;;;;;;20.74;47.05;98800.69;4959620;28;20118;-76
2021/09/02 08:16:08;;;;;;;3.60;1.60;;;;;;;20.79;46.09;98788.03;4969377;28;20050;-77
2021/09/02 08:19:27;;;;;;;4.07;1.77;;;;;;;21.28;45.59;98798.84;4959472;28;20037;-74
2021/09/02 08:24:50;;;;;;;3.47;1.60;;;;;;;23.40;43.35;98725.03;4987824;28;20046;-75
2021/09/02 08:27:29;;;;;;;1.70;1.50;;;;;;;24.55;40.88;98696.31;4981257;28;20038;-77
2021/09/02 08:30:39;;;;;;;2.80;1.80;;;;;;;26.03;37.14;98693.25;4972831;28;20072;-77
2021/09/02 08:33:05;;;;;;;1.77;1.60;;;;;;;28.13;36.26;98765.28;4982954;28;20419;-77
2021/09/02 08:35:32;;;;;;;3.03;1.65;;;;;;;29.80;34.34;98738.59;4966574;28;20141;-77
2021/09/02 08:38:04;;;;;;;5.15;1.90;;;;;;;31.76;31.31;98753.88;4981076;28;20074;-77
2021/09/02 08:40:42;;;;;;;3.22;1.80;;;;;;;32.68;29.46;98754.94;4957571;28;20046;-77
2021/09/02 08:43:08;;;;;;;3.60;1.60;;;;;;;32.39;28.68;98720.72;4979987;28;20475;-78
2021/09/02 08:45:34;;;;;;;3.67;1.60;;;;;;;32.21;27.95;98753.28;4964733;28;20046;-78
2021/09/02 08:48:00;;;;;;;2.15;1.65;;;;;;;31.83;27.53;98749.50;4965165;28;20394;-77
2021/09/02 08:50:28;;;;;;;7.68;1.90;;;;;;;31.63;27.79;98740.97;4981475;28;20249;-77
2021/09/02 08:52:55;;;;;;;3.38;1.33;;;;;;;32.83;26.90;98720.00;4959429;28;20138;-78
2021/09/02 08:55:22;;;;;;;3.90;1.70;;;;;;;33.91;24.81;98724.94;4945223;28;20169;-77
2021/09/02 08:57:50;;;;;;;3.13;1.60;;;;;;;34.64;24.10;98731.22;4957084;28;20140;-77
2021/09/02 09:00:17;;;;;;;4.65;1.70;;;;;;;35.71;23.31;98731.84;4961621;28;20073;-77
2021/09/02 09:02:45;;;;;;;4.00;1.75;;;;;;;36.85;22.18;98725.75;4959388;28;20117;-78
2021/09/02 09:05:13;;;;;;;3.20;1.80;;;;;;;38.42;20.66;98739.25;4944060;28;20117;-77
2021/09/02 09:07:40;;;;;;;4.00;1.63;;;;;;;39.43;19.54;98728.28;4946217;28;20510;-76
2021/09/02 09:10:14;;;;;;;4.97;2.10;;;;;;;38.47;19.42;98735.91;4946181;28;20093;-77
2021/09/02 09:12:42;;;;;;;4.25;1.60;;;;;;;36.41;20.15;98740.75;4941789;28;20129;-77
2021/09/02 09:15:15;;;;;;;5.60;1.67;;;;;;;34.80;21.07;98733.63;4958532;28;20078;-76
2021/09/02 09:17:42;;;;;;;3.55;2.20;;;;;;;33.34;22.42;98735.41;4931002;28;20581;-77
2021/09/02 09:20:08;;;;;;;3.15;2.03;;;;;;;32.02;23.71;98744.66;4960180;28;20286;-76
2021/09/02 09:22:34;;;;;;;3.55;1.65;;;;;;;30.89;23.35;98750.09;4943529;28;20594;-77
2021/09/02 09:25:03;;;;;;;2.17;1.48;;;;;;;29.52;24.62;98747.72;4946177;28;20042;-78
2021/09/02 09:27:55;;;;;;;2.38;1.60;;;;;;;28.48;25.69;98744.00;4960583;28;20039;-76
2021/09/02 09:30:22;;;;;;;2.50;1.70;;;;;;;27.74;26.71;98755.66;4945190;28;20066;-77
2021/09/02 09:32:55;;;;;;;4.30;1.80;;;;;;;27.12;27.74;98752.66;4945655;28;20049;-76
2021/09/02 09:35:43;;;;;;;3.08;1.88;;;;;;;26.57;27.88;98754.97;4931190;28;20503;-77
2021/09/02 09:38:15;;;;;;;4.45;1.90;;;;;;;26.14;28.41;98757.09;4958862;28;20081;-77
2021/09/02 09:40:45;;;;;;;3.60;1.73;;;;;;;25.75;29.26;98770.31;4944100;28;20082;-76
2021/09/02 09:43:25;;;;;;;4.40;1.80;;;;;;;25.41;29.96;98767.94;4960488;28;20466;-77
2021/09/02 09:45:56;;;;;;;3.10;1.95;;;;;;;25.12;29.70;98768.63;4945762;28;20042;-76
2021/09/02 09:48:22;;;;;;;4.10;1.83;;;;;;;24.94;30.47;98769.25;4944681;28;20423;-76
2021/09/02 09:51:13;;;;;;;2.60;1.50;;;;;;;24.57;30.81;98763.50;4958719;28;20046;-77
2021/09/02 09:53:50;;;;;;;4.23;1.70;;;;;;;24.14;31.17;98767.91;4950940;28;20601;-76
2021/09/02 09:56:19;;;;;;;4.45;1.90;;;;;;;23.92;32.24;98785.56;4983623;28;20311;-77
2021/09/02 09:58:47;;;;;;;2.22;1.60;;;;;;;23.58;32.65;98773.19;4949317;28;20046;-75
2021/09/02 10:01:13;;;;;;;4.05;2.00;;;;;;;23.35;33.10;98787.41;4982815;28;20068;-74
2021/09/02 10:03:40;;;;;;;3.10;1.60;;;;;;;23.19;33.93;98790.38;4970494;28;21239;-77
2021/09/02 10:06:10;;;;;;;3.47;1.60;;;;;;;23.09;34.62;98788.41;4970378;28;20046;-75
2021/09/02 10:08:38;;;;;;;3.65;2.00;;;;;;;22.79;34.93;98765.97;4965351;28;20054;-78
2021/09/02 10:11:06;;;;;;;3.55;1.85;;;;;;;22.74;35.08;98791.97;4971029;28;20053;-76
2021/09/02 10:13:33;;;;;;;2.33;2.03;;;;;;;22.46;35.08;98756.09;4957719;28;20053;-77
2021/09/02 10:16:00;;;;;;;5.07;1.90;;;;;;;22.59;35.62;98788.66;4988961;28;20050;-77
2021/09/02 10:18:27;;;;;;;2.33;1.58;;;;;;;22.51;35.61;98805.16;4975021;28;20510;-76
2021/09/02 10:20:54;;;;;;;3.80;1.60;;;;;;;22.22;35.56;98792.19;4967170;28;20042;-77
2021/09/02 10:23:26;;;;;;;2.67;1.77;;;;;;;22.01;36.35;98805.22;4987982;28;20038;-77
2021/09/02 10:25:53;;;;;;;3.83;1.60;;;;;;;21.63;36.11;98799.06;4982301;28;20041;-78
2021/09/02 10:28:45;;;;;;;2.30;1.70;;;;;;;21.71;36.68;98806.44;4991149;28;20042;-75
2021/09/02 10:31:23;;;;;;;3.28;1.90;;;;;;;22.19;36.36;98797.72;4988565;28;20073;-78
2021/09/02 10:33:49;;;;;;;2.13;1.70;;;;;;;22.86;35.80;98792.84;4981450;28;20153;-75
2021/09/02 10:36:14;;;;;;;6.50;2.00;;;;;;;23.66;35.02;98798.25;4973060;28;20030;-78
2021/09/02 10:38:45;;;;;;;6.13;2.00;;;;;;;23.74;34.81;98791.34;4972917;28;20061;-78
2021/09/02 10:41:12;;;;;;;;;;;;;;;23.60;34.23;98791.63;4972230;28;20049;-77
2021/09/02 10:43:50;;;;;;;4.88;1.98;;;;;;;23.35;34.57;98788.25;4960193;28;19922;-77
2021/09/02 10:46:30;;;;;;;5.45;2.58;;;;;;;23.23;35.27;98782.09;4972740;28;20034;-77
2021/09/02 10:49:31;;;;;;;3.90;1.97;;;;;;;23.40;35.13;98793.19;4971161;28;20374;-75
2021/09/02 10:52:23;;;;;;;3.97;2.10;;;;;;;23.15;35.67;98793.25;4955362;28;20042;-79
2021/09/02 10:54:49;;;;;;;6.68;1.75;;;;;;;22.83;36.07;98801.91;4980145;28;20134;-75
2021/09/02 10:57:17;;;;;;;2.97;1.55;;;;;;;22.07;36.18;98806.56;4966411;28;20039;-76
2021/09/02 10:59:54;;;;;;;6.72;1.98;;;;;;;21.25;36.77;98813.16;4950997;28;20197;-76
2021/09/02 11:02:23;;;;;;;4.22;2.15;;;;;;;20.50;38.45;98816.38;4968028;28;20062;-77
2021/09/02 11:05:02;;;;;;;4.82;1.90;;;;;;;19.83;39.61;98799.47;4972774;28;20039;-78
2021/09/02 11:07:44;;;;;;;6.95;3.00;;;;;;;19.64;39.96;98813.78;4921274;28;20514;-77
2021/09/02 11:10:12;;;;;;;5.40;2.13;;;;;;;19.38;40.25;98812.78;4955410;28;20035;-78
2021/09/02 11:12:38;;;;;;;3.72;2.47;;;;;;;19.18;40.78;98820.09;4964141;28;20519;-76
2021/09/02 11:15:05;;;;;;;4.25;2.13;;;;;;;18.77;41.51;98795.22;4968135;28;20050;-75
2021/09/02 11:17:31;;;;;;;3.40;2.03;;;;;;;18.57;42.03;98808.72;4967629;28;20062;-77
2021/09/02 11:19:57;;;;;;;3.28;2.25;;;;;;;18.42;42.59;98815.72;4969168;28;20050;-77
2021/09/02 11:22:23;;;;;;;3.13;1.90;;;;;;;18.40;43.46;98830.78;4951058;28;20623;-77
2021/09/02 11:24:53;;;;;;;3.00;1.95;;;;;;;18.33;43.68;98812.69;4966405;28;20042;-76
2021/09/02 11:27:30;;;;;;;5.45;2.30;;;;;;;18.47;43.73;98834.72;4964403;28;20501;-76
2021/09/02 11:30:16;;;;;;;4.72;3.10;;;;;;;18.34;44.45;98830.19;4951383;28;20043;-77
2021/09/02 11:32:43;;;;;;;5.60;2.70;;;;;;;18.33;45.25;98830.25;4967011;28;20035;-76
2021/09/02 11:35:09;;;;;;;4.00;2.88;;;;;;;18.44;45.42;98830.50;4965536;28;20217;-76
2021/09/02 11:37:43;;;;;;;8.00;2.80;;;;;;;18.58;45.46;98834.13;4966781;28;20034;-76
2021/09/02 11:40:30;;;;;;;5.38;2.75;;;;;;;18.59;45.58;98815.59;4966985;28;20038;-78
2021/09/02 11:42:57;;;;;;;4.22;2.38;;;;;;;18.64;45.33;98796.91;4952513;28;20424;-76
2021/09/02 11:45:25;;;;;;;3.47;2.08;;;;;;;18.85;45.06;98807.97;4933018;28;20106;-76
2021/09/02 11:47:51;;;;;;;4.03;2.30;;;;;;;19.06;44.94;98818.22;4968957;28;20399;-76
2021/09/02 11:50:19;;;;;;;3.88;2.03;;;;;;;19.29;44.35;98810.72;4931435;28;20043;-77
2021/09/02 11:52:53;;;;;;;5.15;2.10;;;;;;;19.47;43.76;98798.16;4931386;28;20050;-76